DAJAN LSZS-KTEB
Flight info
| Callsign | DAJAN |
|---|---|
| Flight time | N/A |
| Altitude | 34000 |
| Route | RONAG L613 ELMUR N851 KUDIS Z170 SONOM T163 LADOL DCT PITES/N0434F360 DCT DENUT L610 KOPUL Q60 OKSAW DCT NIRIF DCT TOBOR/M074F360 DCT 5320N DCT 5330N DCT H5240 DCT 5150N DCT ALLRY/N0410F360 N468A TUSKY Q475 COPLY Q75 FARLE |
| Aircraft | CL60/M-SBDE1E2E3FGHIJ1J4J5J7M3RWXYZ/LB1V1D1 |
Departure
| Time | 2026-04-22 06:24 |
|---|---|
| Airport | Engadin Airport (LSZS) |
Arrival
| Time | N/A |
|---|---|
| Airport | Teterboro Airport (KTEB) |
| Time | Latitude | Longitude | Altitude | Speed | Heading |
|---|---|---|---|---|---|
| 2026-04-22 05:54 | 46.53111 | 9.88025 | 5600 ft | 0 kts | 186° |
| 2026-04-22 06:21 | 46.53087 | 9.88008 | 5600 ft | 10 kts | 208° |
| 2026-04-22 06:21 | 46.53009 | 9.87949 | 5602 ft | 12 kts | 159° |
| 2026-04-22 06:21 | 46.52941 | 9.88003 | 5602 ft | 12 kts | 206° |
| 2026-04-22 06:22 | 46.52864 | 9.87942 | 5604 ft | 12 kts | 210° |
| 2026-04-22 06:22 | 46.52787 | 9.87878 | 5606 ft | 12 kts | 210° |
| 2026-04-22 06:22 | 46.52711 | 9.87826 | 5607 ft | 9 kts | 259° |
| 2026-04-22 06:22 | 46.52725 | 9.87825 | 5607 ft | 0 kts | 33° |
| 2026-04-22 06:23 | 46.52894 | 9.87964 | 5604 ft | 67 kts | 29° |
| 2026-04-22 06:23 | 46.53509 | 9.88467 | 5590 ft | 132 kts | 27° |
| 2026-04-22 06:23 | 46.54450 | 9.89231 | 5718 ft | 168 kts | 30° |
| 2026-04-22 06:24 | 46.56538 | 9.91149 | 7020 ft | 182 kts | 33° |
| 2026-04-22 06:24 | 46.57596 | 9.92174 | 7704 ft | 190 kts | 33° |
| 2026-04-22 06:24 | 46.58619 | 9.93410 | 8446 ft | 198 kts | 46° |
| 2026-04-22 06:25 | 46.59539 | 9.94878 | 9308 ft | 200 kts | 47° |
| 2026-04-22 06:25 | 46.60464 | 9.96366 | 10151 ft | 202 kts | 46° |
| 2026-04-22 06:25 | 46.61403 | 9.97874 | 10964 ft | 205 kts | 46° |
| 2026-04-22 06:25 | 46.62367 | 9.99414 | 11779 ft | 207 kts | 45° |
| 2026-04-22 06:26 | 46.63335 | 10.00943 | 12527 ft | 209 kts | 44° |
| 2026-04-22 06:26 | 46.64329 | 10.02473 | 13269 ft | 211 kts | 44° |
| 2026-04-22 06:26 | 46.65339 | 10.04026 | 14045 ft | 213 kts | 44° |
| 2026-04-22 06:26 | 46.66356 | 10.05583 | 14739 ft | 214 kts | 43° |
| 2026-04-22 06:27 | 46.67410 | 10.07113 | 15400 ft | 217 kts | 41° |
| 2026-04-22 06:27 | 46.68495 | 10.08666 | 15947 ft | 227 kts | 42° |
| 2026-04-22 06:27 | 46.69684 | 10.10361 | 16238 ft | 247 kts | 41° |
| 2026-04-22 06:27 | 46.70943 | 10.12160 | 16505 ft | 260 kts | 41° |
| 2026-04-22 06:28 | 46.72313 | 10.13904 | 16746 ft | 270 kts | 28° |
| 2026-04-22 06:28 | 46.74114 | 10.14841 | 17023 ft | 285 kts | 5° |
| 2026-04-22 06:28 | 46.76138 | 10.14510 | 17308 ft | 303 kts | 340° |
| 2026-04-22 06:28 | 46.77912 | 10.12711 | 17589 ft | 326 kts | 312° |
| 2026-04-22 06:29 | 46.79094 | 10.09762 | 17840 ft | 348 kts | 298° |
| 2026-04-22 06:29 | 46.80146 | 10.06493 | 18081 ft | 361 kts | 298° |
| 2026-04-22 06:29 | 46.81229 | 10.03164 | 18424 ft | 368 kts | 298° |
| 2026-04-22 06:29 | 46.82324 | 9.99798 | 19153 ft | 369 kts | 298° |
| 2026-04-22 06:30 | 46.83412 | 9.96455 | 20052 ft | 364 kts | 299° |
| 2026-04-22 06:30 | 46.84489 | 9.93144 | 20901 ft | 362 kts | 298° |
| 2026-04-22 06:30 | 46.85576 | 9.89812 | 21482 ft | 365 kts | 298° |
| 2026-04-22 06:30 | 46.86653 | 9.86505 | 22291 ft | 360 kts | 299° |
| 2026-04-22 06:31 | 46.87717 | 9.83233 | 23178 ft | 353 kts | 298° |
| 2026-04-22 06:31 | 46.88767 | 9.80012 | 23757 ft | 356 kts | 298° |
| 2026-04-22 06:31 | 46.89841 | 9.76722 | 24126 ft | 364 kts | 298° |
| 2026-04-22 06:31 | 46.90933 | 9.73370 | 24513 ft | 369 kts | 298° |
| 2026-04-22 06:32 | 46.92030 | 9.70000 | 25081 ft | 367 kts | 299° |
| 2026-04-22 06:32 | 46.93361 | 9.66878 | 25661 ft | 362 kts | 313° |
| 2026-04-22 06:32 | 46.95320 | 9.64512 | 25957 ft | 365 kts | 332° |
| 2026-04-22 06:32 | 46.97657 | 9.63059 | 26301 ft | 369 kts | 339° |
| 2026-04-22 06:33 | 47.00080 | 9.61730 | 26638 ft | 374 kts | 339° |
| 2026-04-22 06:33 | 47.02525 | 9.60376 | 26971 ft | 377 kts | 339° |
| 2026-04-22 06:33 | 47.04968 | 9.59020 | 27455 ft | 374 kts | 338° |
| 2026-04-22 06:33 | 47.07432 | 9.57652 | 27921 ft | 374 kts | 339° |
| 2026-04-22 06:34 | 47.09903 | 9.56277 | 28218 ft | 377 kts | 338° |
| 2026-04-22 06:34 | 47.12407 | 9.54880 | 28475 ft | 382 kts | 339° |
| 2026-04-22 06:34 | 47.14924 | 9.53476 | 28766 ft | 385 kts | 339° |
| 2026-04-22 06:34 | 47.17463 | 9.52057 | 29092 ft | 386 kts | 339° |
| 2026-04-22 06:35 | 47.19967 | 9.50658 | 29488 ft | 385 kts | 338° |
| 2026-04-22 06:35 | 47.22476 | 9.49252 | 29912 ft | 383 kts | 338° |
| 2026-04-22 06:35 | 47.24983 | 9.47846 | 30236 ft | 384 kts | 338° |
| 2026-04-22 06:35 | 47.27504 | 9.46430 | 30366 ft | 390 kts | 339° |
| 2026-04-22 06:36 | 47.30054 | 9.44997 | 30597 ft | 392 kts | 338° |
| 2026-04-22 06:36 | 47.32639 | 9.43542 | 30886 ft | 393 kts | 338° |
| 2026-04-22 06:36 | 47.35181 | 9.42109 | 31114 ft | 395 kts | 338° |
| 2026-04-22 06:36 | 47.37772 | 9.40648 | 31383 ft | 396 kts | 339° |
| 2026-04-22 06:37 | 47.40362 | 9.39185 | 31563 ft | 398 kts | 339° |
| 2026-04-22 06:37 | 47.42956 | 9.37718 | 31815 ft | 397 kts | 338° |
| 2026-04-22 06:37 | 47.45563 | 9.36243 | 32130 ft | 396 kts | 338° |
| 2026-04-22 06:37 | 47.48092 | 9.34810 | 32417 ft | 396 kts | 338° |
| 2026-04-22 06:38 | 47.50721 | 9.33319 | 32584 ft | 398 kts | 338° |
| 2026-04-22 06:38 | 47.53316 | 9.31844 | 32851 ft | 397 kts | 338° |
| 2026-04-22 06:38 | 47.55890 | 9.30381 | 33053 ft | 397 kts | 338° |
| 2026-04-22 06:38 | 47.58487 | 9.28903 | 33276 ft | 398 kts | 338° |
| 2026-04-22 06:39 | 47.61057 | 9.27438 | 33475 ft | 398 kts | 338° |
| 2026-04-22 06:39 | 47.63618 | 9.25977 | 33754 ft | 396 kts | 338° |
| 2026-04-22 06:39 | 47.66200 | 9.24503 | 33956 ft | 395 kts | 338° |
| 2026-04-22 06:39 | 47.68753 | 9.23044 | 34087 ft | 399 kts | 338° |
| 2026-04-22 06:40 | 47.71364 | 9.21550 | 34164 ft | 400 kts | 338° |
| 2026-04-22 06:40 | 47.76589 | 9.18555 | 34194 ft | 405 kts | 338° |
| 2026-04-22 06:41 | 47.81817 | 9.15552 | 34175 ft | 402 kts | 338° |
| 2026-04-22 06:41 | 47.87028 | 9.12553 | 34173 ft | 400 kts | 338° |
| 2026-04-22 06:42 | 47.92194 | 9.09573 | 34135 ft | 399 kts | 338° |
| 2026-04-22 06:42 | 47.97391 | 9.06568 | 34138 ft | 400 kts | 338° |
| 2026-04-22 06:43 | 48.02598 | 9.03552 | 34148 ft | 402 kts | 339° |
| 2026-04-22 06:43 | 48.07865 | 9.00493 | 34136 ft | 403 kts | 339° |
| 2026-04-22 06:44 | 48.13068 | 8.97457 | 34140 ft | 404 kts | 338° |
| 2026-04-22 06:44 | 48.17940 | 8.93220 | 34148 ft | 404 kts | 322° |
| 2026-04-22 06:45 | 48.22007 | 8.87401 | 34148 ft | 406 kts | 317° |
| 2026-04-22 06:45 | 48.26000 | 8.81446 | 34158 ft | 406 kts | 317° |
| 2026-04-22 06:46 | 48.30035 | 8.75412 | 34166 ft | 406 kts | 317° |
| 2026-04-22 06:46 | 48.34021 | 8.69436 | 34170 ft | 406 kts | 317° |
| 2026-04-22 06:47 | 48.38025 | 8.63418 | 34166 ft | 405 kts | 317° |
| 2026-04-22 06:47 | 48.41992 | 8.57442 | 34167 ft | 405 kts | 317° |
| 2026-04-22 06:48 | 48.45992 | 8.51402 | 34159 ft | 405 kts | 317° |
| 2026-04-22 06:48 | 48.49976 | 8.45371 | 34169 ft | 405 kts | 317° |
| 2026-04-22 06:49 | 48.53962 | 8.39321 | 34211 ft | 406 kts | 317° |
| 2026-04-22 06:49 | 48.57930 | 8.33286 | 34188 ft | 405 kts | 316° |
| 2026-04-22 06:50 | 48.61887 | 8.27254 | 34248 ft | 404 kts | 316° |
| 2026-04-22 06:50 | 48.65848 | 8.21200 | 34243 ft | 405 kts | 316° |
| 2026-04-22 06:51 | 48.69837 | 8.15090 | 34233 ft | 407 kts | 316° |
| 2026-04-22 06:51 | 48.73797 | 8.09008 | 34234 ft | 405 kts | 316° |
| 2026-04-22 06:52 | 48.77770 | 8.02893 | 34259 ft | 407 kts | 316° |
| 2026-04-22 06:52 | 48.79767 | 7.99814 | 34377 ft | 410 kts | 316° |
| 2026-04-22 06:52 | 48.81765 | 7.96729 | 34522 ft | 409 kts | 316° |
| 2026-04-22 06:52 | 48.83746 | 7.93666 | 34818 ft | 406 kts | 316° |